Time;durP1;ratioP1;P1;durP2;ratioP2;P2;SDS_P1;SDS_P2;PMS_P1;PMS_P2;Temp;Humidity;BMP_temperature;BMP_pressure;BME280_temperature;BME280_humidity;BME280_pressure;Samples;Min_cycle;Max_cycle;Signal;HPM_P1;HPM_P2
2021/06/20 00:00:38;;;;;;;8.95;5.78;;;20.50;90.40;;;;;;5093071;28;20479;-38
2021/06/20 00:03:05;;;;;;;17.05;7.50;;;20.60;90.70;;;;;;5092604;28;20094;-38
2021/06/20 00:05:35;;;;;;;15.00;7.28;;;20.70;90.90;;;;;;5092754;28;20107;-37
2021/06/20 00:08:02;;;;;;;9.98;6.95;;;20.60;91.00;;;;;;5092743;28;20047;-37
2021/06/20 00:10:29;;;;;;;9.27;6.53;;;20.50;91.20;;;;;;5092527;28;20036;-37
2021/06/20 00:12:57;;;;;;;11.02;6.78;;;20.40;92.00;;;;;;5074661;28;20019;-38
2021/06/20 00:15:25;;;;;;;19.88;9.27;;;20.50;92.40;;;;;;5092624;28;20053;-37
2021/06/20 00:17:51;;;;;;;18.70;8.35;;;20.70;92.30;;;;;;5092689;28;20491;-37
2021/06/20 00:20:18;;;;;;;13.13;8.20;;;20.80;92.00;;;;;;5074434;28;20024;-38
2021/06/20 00:22:45;;;;;;;16.58;9.68;;;20.70;91.40;;;;;;5092654;28;20062;-38
2021/06/20 00:25:11;;;;;;;14.18;8.57;;;20.60;92.40;;;;;;5075061;28;20486;-37
2021/06/20 00:27:37;;;;;;;12.45;8.50;;;20.60;92.60;;;;;;5092395;28;20051;-38
2021/06/20 00:30:11;;;;;;;14.27;8.95;;;20.50;93.00;;;;;;5092324;28;20112;-37
2021/06/20 00:32:37;;;;;;;17.55;9.30;;;20.40;92.80;;;;;;5093043;28;20028;-37
2021/06/20 00:35:04;;;;;;;21.25;10.13;;;20.30;92.40;;;;;;5092372;28;20039;-36
2021/06/20 00:37:30;;;;;;;15.30;10.10;;;20.40;92.50;;;;;;5092782;28;20113;-37
2021/06/20 00:39:56;;;;;;;17.38;11.18;;;20.40;92.60;;;;;;5096858;28;20452;-36
2021/06/20 00:42:22;;;;;;;12.75;10.63;;;20.30;92.60;;;;;;5078364;28;20016;-36
2021/06/20 00:44:49;;;;;;;12.75;9.70;;;20.40;92.50;;;;;;5096563;28;20031;-37
2021/06/20 00:47:17;;;;;;;15.40;11.57;;;20.40;92.20;;;;;;5096542;28;20035;-37
2021/06/20 00:49:43;;;;;;;20.70;13.52;;;20.40;92.50;;;;;;5096195;28;20027;-37
2021/06/20 00:52:09;;;;;;;14.57;11.02;;;20.50;92.60;;;;;;5096037;28;20024;-36
2021/06/20 00:54:35;;;;;;;15.35;11.48;;;20.60;92.40;;;;;;5096188;28;20036;-37
2021/06/20 00:57:01;;;;;;;15.10;11.43;;;20.50;92.40;;;;;;5077979;28;20054;-36
2021/06/20 00:59:30;;;;;;;12.98;11.50;;;20.50;92.40;;;;;;5077902;28;20051;-36
2021/06/20 01:01:56;;;;;;;19.50;13.13;;;20.50;91.90;;;;;;5095752;28;20035;-36
2021/06/20 01:04:23;;;;;;;17.65;12.38;;;20.50;91.60;;;;;;5095774;28;20027;-36
2021/06/20 01:06:48;;;;;;;13.48;12.02;;;20.50;91.80;;;;;;5095965;28;20028;-37
2021/06/20 01:09:15;;;;;;;12.73;10.38;;;20.40;91.70;;;;;;5095605;28;20598;-37
2021/06/20 01:11:41;;;;;;;16.15;11.90;;;20.50;91.70;;;;;;5077783;28;20024;-36
2021/06/20 01:14:07;;;;;;;12.68;11.13;;;20.50;91.30;;;;;;5095573;28;20020;-36
2021/06/20 01:16:33;;;;;;;16.08;11.13;;;20.40;91.40;;;;;;5077343;28;20364;-36
2021/06/20 01:18:59;;;;;;;14.38;11.35;;;20.50;91.20;;;;;;5096026;28;20384;-36
2021/06/20 01:21:24;;;;;;;15.00;12.13;;;20.30;91.60;;;;;;5095449;28;20032;-37
2021/06/20 01:23:50;;;;;;;19.15;11.93;;;20.30;91.80;;;;;;5095442;28;20028;-37
2021/06/20 01:26:16;;;;;;;15.77;12.13;;;20.30;92.00;;;;;;5095378;28;20052;-37
2021/06/20 01:28:52;;;;;;;15.50;11.38;;;20.30;92.00;;;;;;5095406;28;20084;-36
2021/06/20 01:31:19;;;;;;;15.73;12.80;;;20.30;91.70;;;;;;5062121;28;20048;-37
2021/06/20 01:33:45;;;;;;;16.58;11.35;;;20.40;92.40;;;;;;5075526;28;20379;-37
2021/06/20 01:36:12;;;;;;;19.63;12.63;;;20.30;91.70;;;;;;5057638;28;20052;-36
2021/06/20 01:38:39;;;;;;;14.77;12.57;;;20.30;92.10;;;;;;5075041;28;20032;-36
2021/06/20 01:41:07;;;;;;;18.98;13.00;;;20.30;92.00;;;;;;5075006;28;20024;-40
2021/06/20 01:43:33;;;;;;;18.58;14.30;;;20.30;92.30;;;;;;5074983;28;20108;-36
2021/06/20 01:45:58;;;;;;;15.50;12.77;;;20.30;92.30;;;;;;5075012;28;20055;-36
2021/06/20 01:48:24;;;;;;;23.52;13.35;;;20.30;92.50;;;;;;5075175;28;20016;-36
2021/06/20 01:50:49;;;;;;;17.30;12.77;;;20.30;92.30;;;;;;5074824;28;20035;-37
2021/06/20 01:53:16;;;;;;;18.67;13.07;;;20.30;92.40;;;;;;5074917;28;20017;-37
2021/06/20 01:55:44;;;;;;;18.67;11.02;;;20.30;92.60;;;;;;5057225;28;20487;-37
2021/06/20 01:58:13;;;;;;;13.88;9.23;;;20.40;92.60;;;;;;5074933;28;20388;-37
2021/06/20 02:00:41;;;;;;;9.00;8.10;;;20.50;91.60;;;;;;5074798;28;20028;-37
2021/06/20 02:03:11;;;;;;;12.57;8.73;;;20.50;91.10;;;;;;5074941;28;20039;-37
2021/06/20 02:05:38;;;;;;;12.90;6.72;;;20.50;90.80;;;;;;5056685;28;20082;-37
2021/06/20 02:08:04;;;;;;;10.25;7.40;;;20.50;90.60;;;;;;5074589;28;20041;-37
2021/06/20 02:10:30;;;;;;;10.88;5.65;;;20.50;90.80;;;;;;5074581;28;20035;-38
2021/06/20 02:12:56;;;;;;;19.00;6.10;;;20.60;90.60;;;;;;5074761;28;20468;-38
2021/06/20 02:15:22;;;;;;;10.00;5.13;;;20.60;89.70;;;;;;5074383;28;20108;-37
2021/06/20 02:17:49;;;;;;;11.40;5.80;;;20.60;90.00;;;;;;5074424;28;20036;-37
2021/06/20 02:20:19;;;;;;;10.98;5.78;;;20.60;90.30;;;;;;5074217;28;20028;-37
2021/06/20 02:22:47;;;;;;;;;;;20.60;90.40;;;;;;5057381;28;20093;-37
2021/06/20 02:25:14;;;;;;;7.32;4.25;;;20.60;90.60;;;;;;5074484;28;20271;-37
2021/06/20 02:27:42;;;;;;;7.07;4.13;;;20.60;90.10;;;;;;5056193;28;20024;-37
2021/06/20 02:30:09;;;;;;;9.45;4.68;;;20.70;89.10;;;;;;5079868;28;20377;-37
2021/06/20 02:32:35;;;;;;;13.43;4.25;;;20.60;89.60;;;;;;5094074;28;20103;-37
2021/06/20 02:35:02;;;;;;;9.57;4.30;;;20.60;89.50;;;;;;5094322;28;20095;-37
2021/06/20 02:37:27;;;;;;;9.43;4.63;;;20.60;89.50;;;;;;5094247;28;20020;-36
2021/06/20 02:39:54;;;;;;;8.18;3.72;;;20.70;89.60;;;;;;5095038;28;20027;-36
2021/06/20 02:42:20;;;;;;;8.18;4.00;;;20.70;90.10;;;;;;5076897;28;20085;-36
2021/06/20 02:44:46;;;;;;;6.97;3.75;;;20.60;89.80;;;;;;5094479;28;20028;-36
2021/06/20 02:47:12;;;;;;;8.70;3.75;;;20.50;89.70;;;;;;5094080;28;20024;-36
2021/06/20 02:49:39;;;;;;;7.07;3.90;;;20.50;89.70;;;;;;5094313;28;20076;-37
2021/06/20 02:52:07;;;;;;;6.60;4.00;;;20.50;89.70;;;;;;5094007;28;20051;-36
2021/06/20 02:54:33;;;;;;;6.93;3.53;;;20.50;89.90;;;;;;5094332;28;20036;-36
2021/06/20 02:56:59;;;;;;;6.22;2.90;;;20.50;90.00;;;;;;5094234;28;20379;-36
2021/06/20 02:59:26;;;;;;;7.53;3.40;;;20.50;89.80;;;;;;5094240;28;20032;-36
2021/06/20 03:01:51;;;;;;;7.97;3.03;;;20.50;89.60;;;;;;5075327;28;20024;-41
2021/06/20 03:04:17;;;;;;;4.70;2.83;;;20.40;89.70;;;;;;5093745;28;20027;-37
2021/06/20 03:06:43;;;;;;;6.70;3.13;;;20.30;89.80;;;;;;5093921;28;20383;-36
2021/06/20 03:09:09;;;;;;;9.15;2.83;;;20.30;89.70;;;;;;5093707;28;20020;-36
2021/06/20 03:11:41;;;;;;;4.53;2.95;;;20.40;90.00;;;;;;5093523;28;20074;-36
2021/06/20 03:14:11;;;;;;;8.48;3.30;;;20.40;89.60;;;;;;5093895;28;20073;-35
2021/06/20 03:16:37;;;;;;;6.80;3.15;;;20.40;90.40;;;;;;5094245;28;20016;-35
2021/06/20 03:19:04;;;;;;;10.85;2.95;;;20.30;89.90;;;;;;5093803;28;20028;-36
2021/06/20 03:21:30;;;;;;;6.13;3.28;;;20.30;90.10;;;;;;5093747;28;20020;-36
2021/06/20 03:23:56;;;;;;;6.68;2.88;;;20.30;90.30;;;;;;5076135;28;20032;-36
2021/06/20 03:26:21;;;;;;;14.80;5.53;;;20.30;89.30;;;;;;5093526;28;20360;-36
2021/06/20 03:28:47;;;;;;;9.60;2.85;;;20.30;89.60;;;;;;5093512;28;20043;-37
2021/06/20 03:31:13;;;;;;;11.23;2.90;;;20.30;89.70;;;;;;5093254;28;20101;-36
2021/06/20 03:33:38;;;;;;;9.75;4.22;;;20.30;89.40;;;;;;5093391;28;20117;-36
2021/06/20 03:36:04;;;;;;;12.63;5.00;;;20.30;89.40;;;;;;5093418;28;20032;-37
2021/06/20 03:38:30;;;;;;;7.18;3.00;;;20.30;89.80;;;;;;5093740;28;20027;-36
2021/06/20 03:40:56;;;;;;;12.60;3.95;;;20.40;88.70;;;;;;5093934;28;20066;-38
2021/06/20 03:43:22;;;;;;;8.18;3.45;;;20.40;88.10;;;;;;5093655;28;20035;-37
2021/06/20 03:45:47;;;;;;;8.60;3.72;;;20.50;88.00;;;;;;5093403;28;20031;-37
2021/06/20 03:48:13;;;;;;;8.63;3.60;;;20.50;87.60;;;;;;5093388;28;20387;-36
2021/06/20 03:50:38;;;;;;;11.50;3.42;;;20.50;87.60;;;;;;5093218;28;20021;-36
2021/06/20 03:53:04;;;;;;;9.27;4.30;;;20.50;87.70;;;;;;5075169;28;20089;-36
2021/06/20 03:55:30;;;;;;;9.93;3.83;;;20.40;88.00;;;;;;5094092;28;20028;-36
2021/06/20 03:57:56;;;;;;;9.32;4.70;;;20.50;87.30;;;;;;5093533;28;20115;-37
2021/06/20 04:00:21;;;;;;;20.25;4.93;;;20.50;87.60;;;;;;5093300;28;20379;-37
2021/06/20 04:02:47;;;;;;;17.02;6.18;;;20.50;87.70;;;;;;5093238;28;20024;-36
2021/06/20 04:05:15;;;;;;;12.30;5.07;;;20.40;87.70;;;;;;5093173;28;20028;-37
2021/06/20 04:07:41;;;;;;;11.27;4.50;;;20.40;88.00;;;;;;5093484;28;20107;-37
2021/06/20 04:10:07;;;;;;;15.25;5.82;;;20.40;87.70;;;;;;5093324;28;20060;-37
2021/06/20 04:12:33;;;;;;;14.63;4.88;;;20.40;87.80;;;;;;5093457;28;20429;-37
2021/06/20 04:14:58;;;;;;;11.95;4.93;;;20.30;88.10;;;;;;5097094;28;20091;-36
2021/06/20 04:17:24;;;;;;;11.55;4.78;;;20.30;87.70;;;;;;5097189;28;20055;-37
2021/06/20 04:19:50;;;;;;;11.18;6.55;;;20.40;87.30;;;;;;5097178;28;20023;-37
2021/06/20 04:22:15;;;;;;;12.98;5.10;;;20.30;88.10;;;;;;5097101;28;20031;-36
2021/06/20 04:24:41;;;;;;;12.35;5.40;;;20.30;88.00;;;;;;5096918;28;20035;-36
2021/06/20 04:27:08;;;;;;;6.75;4.20;;;20.30;88.40;;;;;;5096723;28;20031;-36
2021/06/20 04:29:34;;;;;;;10.95;6.75;;;20.30;88.00;;;;;;5096799;28;20055;-36
2021/06/20 04:32:00;;;;;;;5.75;4.93;;;20.20;88.30;;;;;;5096724;28;20020;-36
2021/06/20 04:34:26;;;;;;;9.05;5.95;;;20.30;88.30;;;;;;5096956;28;20073;-36
2021/06/20 04:36:52;;;;;;;10.98;5.57;;;20.30;87.90;;;;;;5096618;28;20024;-36
2021/06/20 04:39:18;;;;;;;10.45;6.25;;;20.30;88.10;;;;;;5096697;28;20119;-36
2021/06/20 04:41:43;;;;;;;9.50;5.25;;;20.30;87.70;;;;;;5096470;28;20036;-36
2021/06/20 04:46:53;;;;;;;11.50;4.68;;;20.40;86.50;;;;;;5096543;28;20560;-36
2021/06/20 04:49:20;;;;;;;8.35;5.03;;;20.50;86.60;;;;;;5096700;28;20024;-37
2021/06/20 04:51:46;;;;;;;7.03;4.40;;;20.60;85.70;;;;;;5096593;28;20384;-39
2021/06/20 04:54:13;;;;;;;10.38;4.55;;;20.70;85.80;;;;;;5096272;28;20099;-36
2021/06/20 04:56:40;;;;;;;8.88;4.93;;;20.70;85.60;;;;;;5097048;28;20043;-37
2021/06/20 04:59:07;;;;;;;5.32;3.85;;;20.70;85.10;;;;;;5096439;28;20020;-37
2021/06/20 05:01:32;;;;;;;5.13;3.92;;;20.70;84.70;;;;;;5096269;28;20480;-37
2021/06/20 05:03:58;;;;;;;7.97;4.35;;;20.60;84.60;;;;;;5096344;28;20028;-37
2021/06/20 05:06:24;;;;;;;10.70;3.72;;;20.60;84.50;;;;;;5096045;28;20035;-37
2021/06/20 05:08:50;;;;;;;8.05;3.67;;;20.60;84.60;;;;;;5096201;28;20436;-36
2021/06/20 05:11:16;;;;;;;8.77;3.60;;;20.50;84.70;;;;;;5096117;28;20028;-36
2021/06/20 05:13:42;;;;;;;4.18;3.10;;;20.60;84.80;;;;;;5077664;28;20020;-36
2021/06/20 05:16:08;;;;;;;5.22;3.38;;;20.60;84.10;;;;;;5095974;28;20489;-37
2021/06/20 05:18:34;;;;;;;6.82;3.50;;;20.50;84.30;;;;;;5095814;28;20475;-47
2021/06/20 05:21:00;;;;;;;5.85;2.92;;;20.60;84.20;;;;;;5095744;28;20024;-36
2021/06/20 05:23:26;;;;;;;3.75;2.97;;;20.70;83.90;;;;;;5095621;28;20107;-36
2021/06/20 05:25:52;;;;;;;7.18;3.20;;;20.70;84.00;;;;;;5095770;28;20107;-36
2021/06/20 05:28:18;;;;;;;4.93;2.45;;;20.70;83.80;;;;;;5095867;28;20414;-37
2021/06/20 05:30:47;;;;;;;7.78;2.85;;;20.80;83.40;;;;;;5095263;28;20066;-36
2021/06/20 05:33:14;;;;;;;3.08;2.22;;;20.80;82.10;;;;;;5095877;28;20031;-37
2021/06/20 05:35:40;;;;;;;4.28;2.13;;;21.00;82.20;;;;;;5077416;28;20030;-37
2021/06/20 05:38:06;;;;;;;4.00;2.22;;;21.00;81.80;;;;;;5095434;28;20028;-37
2021/06/20 05:40:33;;;;;;;3.55;2.65;;;21.10;80.80;;;;;;5077422;28;20024;-36
2021/06/20 05:42:58;;;;;;;7.40;2.53;;;21.20;81.10;;;;;;5095479;28;20116;-37
2021/06/20 05:45:24;;;;;;;4.15;2.58;;;21.30;79.60;;;;;;5077532;28;20123;-36
2021/06/20 05:47:49;;;;;;;3.75;2.38;;;21.20;80.00;;;;;;5077416;28;20020;-37
2021/06/20 05:50:15;;;;;;;3.58;2.47;;;21.20;79.80;;;;;;5095219;28;20028;-37
2021/06/20 05:52:41;;;;;;;6.10;2.75;;;21.20;79.50;;;;;;5095459;28;20020;-36
2021/06/20 05:55:07;;;;;;;6.30;2.22;;;21.30;79.00;;;;;;5095159;28;20403;-37
2021/06/20 05:57:33;;;;;;;7.82;2.42;;;21.20;78.90;;;;;;5095259;28;20573;-37
2021/06/20 05:59:59;;;;;;;6.03;2.78;;;21.20;79.00;;;;;;5095083;28;20044;-36
2021/06/20 06:02:25;;;;;;;4.82;2.42;;;21.10;78.40;;;;;;5094961;28;20024;-40
2021/06/20 06:04:51;;;;;;;5.53;2.30;;;21.30;78.40;;;;;;5094884;28;20028;-37
2021/06/20 06:07:16;;;;;;;6.93;2.78;;;21.30;77.90;;;;;;5094896;28;20047;-36
2021/06/20 06:09:42;;;;;;;4.65;2.55;;;21.50;77.40;;;;;;5076529;28;20069;-37
2021/06/20 06:12:08;;;;;;;4.82;3.72;;;21.30;77.90;;;;;;5095007;28;20024;-37
2021/06/20 06:14:34;;;;;;;4.03;2.38;;;21.40;78.30;;;;;;5076547;28;20038;-37
2021/06/20 06:17:00;;;;;;;7.88;3.30;;;21.60;76.60;;;;;;5094709;28;20099;-37
2021/06/20 06:19:26;;;;;;;3.80;2.63;;;21.60;76.60;;;;;;5076537;28;20020;-37
2021/06/20 06:21:51;;;;;;;16.23;3.22;;;21.70;76.10;;;;;;5094582;28;20030;-36
2021/06/20 06:24:17;;;;;;;7.13;3.42;;;21.70;75.00;;;;;;5094521;28;20031;-37
2021/06/20 06:26:43;;;;;;;9.23;4.55;;;21.70;75.50;;;;;;5076494;28;20028;-37
2021/06/20 06:29:09;;;;;;;7.28;3.83;;;21.70;75.60;;;;;;5094470;28;20082;-37
2021/06/20 06:31:36;;;;;;;6.07;3.15;;;21.70;75.20;;;;;;5094303;28;20040;-37
2021/06/20 06:34:05;;;;;;;6.93;3.53;;;21.60;75.50;;;;;;5076259;28;20020;-37
2021/06/20 06:36:30;;;;;;;4.93;2.97;;;21.70;75.20;;;;;;5094203;28;20020;-36
2021/06/20 06:38:56;;;;;;;3.97;3.03;;;21.70;74.90;;;;;;5094648;28;20023;-37
2021/06/20 06:41:22;;;;;;;5.15;3.25;;;21.60;75.50;;;;;;5094538;28;20024;-37
2021/06/20 06:43:47;;;;;;;7.88;2.95;;;21.60;74.90;;;;;;5094240;28;20040;-36
2021/06/20 06:46:13;;;;;;;5.32;2.90;;;21.60;75.50;;;;;;5094145;28;20035;-36
2021/06/20 06:48:39;;;;;;;6.57;2.40;;;21.80;74.50;;;;;;5094265;28;20031;-37
2021/06/20 06:51:05;;;;;;;4.43;3.05;;;21.80;74.30;;;;;;5094210;28;20089;-37
2021/06/20 06:53:31;;;;;;;6.43;3.17;;;22.10;73.30;;;;;;5094226;28;20503;-37
2021/06/20 06:55:58;;;;;;;3.65;3.35;;;21.90;73.40;;;;;;5094167;28;20027;-37
2021/06/20 06:58:24;;;;;;;7.20;3.33;;;21.70;74.40;;;;;;5076212;28;20034;-37
2021/06/20 07:00:50;;;;;;;8.52;4.07;;;21.90;73.90;;;;;;5075760;28;20101;-37
2021/06/20 07:03:16;;;;;;;6.13;4.07;;;22.00;72.70;;;;;;5093930;28;20032;-36
2021/06/20 07:05:42;;;;;;;5.60;3.42;;;21.90;73.10;;;;;;5093873;28;20071;-38
2021/06/20 07:08:08;;;;;;;7.65;3.55;;;22.00;72.20;;;;;;5093777;28;20390;-36
2021/06/20 07:10:34;;;;;;;4.72;3.55;;;22.00;72.10;;;;;;5093965;28;20031;-38
2021/06/20 07:13:00;;;;;;;4.63;3.25;;;22.00;73.00;;;;;;5093621;28;20076;-36
2021/06/20 07:15:26;;;;;;;5.80;3.80;;;22.10;72.80;;;;;;5093744;28;20035;-36
2021/06/20 07:17:52;;;;;;;5.80;3.10;;;22.10;72.30;;;;;;5093752;28;20090;-36
2021/06/20 07:20:18;;;;;;;28.45;6.30;;;22.10;70.50;;;;;;5094069;28;20016;-36
2021/06/20 07:22:46;;;;;;;6.38;3.53;;;22.20;69.80;;;;;;5075441;28;20043;-37
2021/06/20 07:25:15;;;;;;;6.20;3.88;;;21.80;71.00;;;;;;5095679;28;20024;-49
2021/06/20 07:27:41;;;;;;;6.18;3.30;;;21.90;70.50;;;;;;5093442;28;20035;-48
2021/06/20 07:30:09;;;;;;;6.63;3.38;;;22.10;69.90;;;;;;5093176;28;20484;-48
2021/06/20 07:32:35;;;;;;;3.53;3.20;;;22.20;69.80;;;;;;5093280;28;20429;-47
2021/06/20 07:35:02;;;;;;;6.35;3.55;;;22.00;70.60;;;;;;5093413;28;20016;-48
2021/06/20 07:37:28;;;;;;;9.85;3.80;;;22.00;71.20;;;;;;5093470;28;20020;-47
2021/06/20 07:39:53;;;;;;;5.28;3.10;;;22.30;70.40;;;;;;5093376;28;20050;-47
2021/06/20 07:42:19;;;;;;;3.80;3.50;;;22.70;69.10;;;;;;5074935;28;20047;-50
2021/06/20 07:44:45;;;;;;;5.80;3.55;;;22.50;70.20;;;;;;5093394;28;20059;-48
2021/06/20 07:47:10;;;;;;;5.95;3.05;;;22.70;68.70;;;;;;5095213;28;20020;-49
2021/06/20 07:49:36;;;;;;;4.53;2.88;;;23.20;67.30;;;;;;5097426;28;20169;-47
2021/06/20 07:52:02;;;;;;;6.50;3.00;;;24.00;65.70;;;;;;5079456;28;20426;-48
2021/06/20 07:54:28;;;;;;;6.03;3.08;;;24.00;64.60;;;;;;5079306;28;20475;-51
2021/06/20 07:56:54;;;;;;;3.63;2.63;;;23.60;63.70;;;;;;5097389;28;20035;-49
2021/06/20 07:59:19;;;;;;;10.13;2.55;;;23.80;63.40;;;;;;5097181;28;20027;-50
2021/06/20 08:01:45;;;;;;;2.67;2.45;;;23.40;64.10;;;;;;5097129;28;20070;-54
2021/06/20 08:04:11;;;;;;;2.30;2.10;;;23.60;64.00;;;;;;5096921;28;20069;-46
2021/06/20 08:06:36;;;;;;;11.05;2.45;;;24.50;61.60;;;;;;5097156;28;20028;-52
2021/06/20 08:09:05;;;;;;;6.05;2.15;;;24.30;60.00;;;;;;5097179;28;20028;-50
2021/06/20 08:11:33;;;;;;;4.68;2.65;;;24.30;61.50;;;;;;5096993;28;20020;-48
2021/06/20 08:13:59;;;;;;;3.63;2.30;;;24.50;60.20;;;;;;5096870;28;20081;-49
2021/06/20 08:16:26;;;;;;;2.63;2.25;;;24.50;60.40;;;;;;5078620;28;20103;-52
2021/06/20 08:18:52;;;;;;;3.38;1.67;;;25.40;56.40;;;;;;5097135;28;20058;-50
2021/06/20 08:21:19;;;;;;;9.05;2.28;;;25.10;55.90;;;;;;5096707;28;20139;-48
2021/06/20 08:23:45;;;;;;;4.07;2.13;;;24.80;57.00;;;;;;5096750;28;20060;-50
2021/06/20 08:26:11;;;;;;;2.58;1.60;;;25.40;55.20;;;;;;5096435;28;20070;-53
2021/06/20 08:28:37;;;;;;;1.60;1.45;;;25.30;54.70;;;;;;5096850;28;20024;-50
2021/06/20 08:31:03;;;;;;;2.47;1.30;;;25.90;53.30;;;;;;5096428;28;20056;-51
2021/06/20 08:33:28;;;;;;;5.60;1.40;;;25.30;54.40;;;;;;5096664;28;20049;-49
2021/06/20 08:35:54;;;;;;;3.13;1.42;;;25.30;53.90;;;;;;5096899;28;20028;-50
2021/06/20 08:38:20;;;;;;;2.83;1.73;;;25.20;55.10;;;;;;5097099;28;20460;-51
2021/06/20 08:40:45;;;;;;;6.18;1.90;;;25.10;55.30;;;;;;5097200;28;20098;-53
2021/06/20 08:43:12;;;;;;;1.67;1.17;;;25.70;52.10;;;;;;5096989;28;20035;-47
2021/06/20 08:45:37;;;;;;;4.05;1.50;;;25.50;53.90;;;;;;5079407;28;20028;-48
2021/06/20 08:48:05;;;;;;;1.20;1.10;;;25.40;52.30;;;;;;5097079;28;20032;-48
2021/06/20 08:50:31;;;;;;;3.20;1.60;;;25.70;52.60;;;;;;5079201;28;20050;-48
2021/06/20 08:52:57;;;;;;;5.68;1.50;;;25.50;52.50;;;;;;5097183;28;20094;-50
2021/06/20 08:55:23;;;;;;;1.92;1.38;;;24.40;55.00;;;;;;5096457;28;20039;-51
2021/06/20 08:57:58;;;;;;;1.60;1.20;;;24.30;55.70;;;;;;5061533;28;20027;-48
2021/06/20 09:00:24;;;;;;;1.58;1.40;;;24.30;54.60;;;;;;5095910;28;20028;-49
2021/06/20 09:02:58;;;;;;;4.38;1.33;;;25.20;52.30;;;;;;5077995;28;20115;-48
2021/06/20 09:05:24;;;;;;;4.38;1.60;;;25.20;53.40;;;;;;5096265;28;20051;-51
2021/06/20 09:07:49;;;;;;;10.05;1.38;;;25.60;53.10;;;;;;5096461;28;20021;-51
2021/06/20 09:10:16;;;;;;;1.60;1.20;;;24.30;55.30;;;;;;5077921;28;20055;-51
2021/06/20 09:12:48;;;;;;;1.60;1.23;;;24.20;55.90;;;;;;5095911;28;20024;-47
2021/06/20 09:15:16;;;;;;;4.03;1.48;;;24.40;55.50;;;;;;5077713;28;20028;-48
2021/06/20 09:17:57;;;;;;;6.22;1.67;;;24.90;53.90;;;;;;5096154;28;20110;-48
2021/06/20 09:20:45;;;;;;;3.28;1.20;;;25.70;51.70;;;;;;5095963;28;20498;-50
2021/06/20 09:23:16;;;;;;;2.00;1.13;;;26.50;49.90;;;;;;5095935;28;20150;-52
2021/06/20 09:25:44;;;;;;;4.10;1.50;;;26.10;50.30;;;;;;5095820;28;20130;-51
2021/06/20 09:28:12;;;;;;;1.63;1.13;;;26.40;50.70;;;;;;5095612;28;20153;-52
2021/06/20 09:30:51;;;;;;;1.73;1.30;;;25.70;51.40;;;;;;5095476;28;20059;-51
2021/06/20 09:33:18;;;;;;;2.17;1.73;;;26.00;49.50;;;;;;5077240;28;20027;-51
2021/06/20 09:35:53;;;;;;;4.10;1.85;;;25.50;50.80;;;;;;5095256;28;20024;-52
2021/06/20 09:38:30;;;;;;;2.20;1.20;;;25.60;50.40;;;;;;5095501;28;20073;-51
2021/06/20 09:41:03;;;;;;;1.50;1.40;;;25.10;52.50;;;;;;5095571;28;20028;-48
2021/06/20 09:43:30;;;;;;;1.40;1.23;;;24.80;53.40;;;;;;5095094;28;20400;-51
2021/06/20 09:45:56;;;;;;;3.00;1.10;;;25.00;52.60;;;;;;5095410;28;20377;-48
2021/06/20 09:48:33;;;;;;;1.27;0.98;;;25.10;52.20;;;;;;5095082;28;20024;-49
2021/06/20 09:51:20;;;;;;;3.22;1.38;;;25.20;50.60;;;;;;5095279;28;20084;-47
2021/06/20 09:53:48;;;;;;;8.32;2.30;;;25.50;49.20;;;;;;5095057;28;20023;-50
2021/06/20 09:56:22;;;;;;;2.58;1.27;;;26.20;47.10;;;;;;5094909;28;20024;-52
2021/06/20 09:58:57;;;;;;;7.78;1.40;;;26.20;47.80;;;;;;5095025;28;20020;-52
2021/06/20 10:01:24;;;;;;;2.78;1.35;;;25.80;48.20;;;;;;5094711;28;20474;-49
2021/06/20 10:03:50;;;;;;;1.80;1.25;;;25.20;49.40;;;;;;5095186;28;20032;-52
2021/06/20 10:06:16;;;;;;;1.85;1.38;;;24.50;50.20;;;;;;5094941;28;20494;-48
2021/06/20 10:08:43;;;;;;;2.70;1.20;;;25.50;49.10;;;;;;5094991;28;20024;-51
2021/06/20 10:11:09;;;;;;;3.67;1.38;;;26.50;46.50;;;;;;5075448;28;20024;-48
2021/06/20 10:13:35;;;;;;;3.40;1.00;;;26.90;46.20;;;;;;5094788;28;20023;-51
2021/06/20 10:16:21;;;;;;;5.07;2.17;;;26.90;43.60;;;;;;5094791;28;20029;-49
2021/06/20 10:18:55;;;;;;;4.20;1.10;;;27.00;43.30;;;;;;5095535;28;20432;-49
2021/06/20 10:21:31;;;;;;;4.60;1.10;;;26.00;45.60;;;;;;5094618;28;20085;-50
2021/06/20 10:24:07;;;;;;;1.98;1.27;;;26.10;46.10;;;;;;5076136;28;20448;-48
2021/06/20 10:26:34;;;;;;;1.77;1.13;;;25.70;47.00;;;;;;5094958;28;20493;-47
2021/06/20 10:29:02;;;;;;;14.65;3.85;;;26.30;46.40;;;;;;5095225;28;20047;-50
2021/06/20 10:31:38;;;;;;;3.42;1.40;;;26.80;44.30;;;;;;5076464;28;20044;-50
2021/06/20 10:34:28;;;;;;;5.10;2.10;;;26.30;45.40;;;;;;5076700;28;20030;-49
2021/06/20 10:37:06;;;;;;;2.13;1.33;;;26.10;46.50;;;;;;5076902;28;20434;-47
2021/06/20 10:39:33;;;;;;;1.80;1.38;;;25.90;48.10;;;;;;5076442;28;20027;-49
2021/06/20 10:42:10;;;;;;;5.85;1.45;;;25.80;47.70;;;;;;5094368;28;20056;-49
2021/06/20 10:44:49;;;;;;;6.88;1.50;;;26.20;46.70;;;;;;5094003;28;20024;-49
2021/06/20 10:47:26;;;;;;;1.95;1.30;;;26.30;46.60;;;;;;5094097;28;20024;-50
2021/06/20 10:50:01;;;;;;;4.18;1.20;;;26.00;46.70;;;;;;5095192;28;20066;-49
2021/06/20 10:52:27;;;;;;;4.35;2.15;;;26.20;46.50;;;;;;5094432;28;20024;-49
2021/06/20 10:55:10;;;;;;;2.80;1.63;;;26.40;45.60;;;;;;5094846;28;20020;-50
2021/06/20 10:58:02;;;;;;;1.88;1.38;;;26.10;47.70;;;;;;5076047;28;20425;-49
2021/06/20 11:00:36;;;;;;;2.55;1.35;;;26.50;45.90;;;;;;5090270;28;20391;-50
2021/06/20 11:03:13;;;;;;;3.40;1.20;;;25.90;45.10;;;;;;5093908;28;20081;-49
2021/06/20 11:05:47;;;;;;;2.88;1.17;;;25.50;46.70;;;;;;5094650;28;20464;-50
2021/06/20 11:08:28;;;;;;;1.98;1.50;;;25.30;47.20;;;;;;5094923;28;20024;-48
2021/06/20 11:11:25;;;;;;;5.18;1.45;;;25.50;47.40;;;;;;5093807;28;20429;-49
2021/06/20 11:13:56;;;;;;;1.48;1.13;;;26.60;45.90;;;;;;5078481;28;20066;-48
2021/06/20 11:16:32;;;;;;;2.10;1.33;;;26.80;44.30;;;;;;5093780;28;20020;-55
2021/06/20 11:19:06;;;;;;;3.25;1.70;;;26.00;47.70;;;;;;5093765;28;20031;-53
2021/06/20 11:21:39;;;;;;;2.42;1.45;;;26.50;46.90;;;;;;5093225;28;20498;-51
2021/06/20 11:24:06;;;;;;;2.40;1.42;;;26.90;45.70;;;;;;5093932;28;20475;-51
2021/06/20 11:26:32;;;;;;;6.03;2.42;;;26.30;47.40;;;;;;5075335;28;20130;-50
2021/06/20 11:29:00;;;;;;;6.63;2.05;;;26.70;47.60;;;;;;5093263;28;20024;-50
2021/06/20 11:31:26;;;;;;;1.83;1.40;;;26.60;47.60;;;;;;5060760;28;20040;-50
2021/06/20 11:33:54;;;;;;;2.67;2.13;;;27.10;45.50;;;;;;5073219;28;20086;-51
2021/06/20 11:36:20;;;;;;;1.92;1.63;;;27.10;45.70;;;;;;5073112;28;20054;-47
2021/06/20 11:38:47;;;;;;;4.75;1.83;;;26.60;46.30;;;;;;5072801;28;20020;-47
2021/06/20 11:41:17;;;;;;;2.20;1.45;;;26.10;47.60;;;;;;5073150;28;20032;-51
2021/06/20 11:43:59;;;;;;;;;;;25.80;47.90;;;;;;5055587;28;20032;-50
2021/06/20 11:46:30;;;;;;;2.90;1.75;;;25.30;49.30;;;;;;5072917;28;19911;-49
2021/06/20 11:49:02;;;;;;;2.42;1.52;;;25.30;48.40;;;;;;5073184;28;20033;-52
2021/06/20 11:51:36;;;;;;;1.52;1.38;;;25.40;48.30;;;;;;5055500;28;20033;-49
2021/06/20 11:54:08;;;;;;;2.67;1.30;;;25.20;48.40;;;;;;5073764;28;20364;-48
2021/06/20 11:56:33;;;;;;;1.45;1.30;;;25.20;48.10;;;;;;5054683;28;20028;-48
2021/06/20 11:59:29;;;;;;;2.05;1.33;;;25.50;47.50;;;;;;5075728;28;20024;-39
2021/06/20 12:01:56;;;;;;;1.60;1.50;;;25.50;47.00;;;;;;5062726;28;20036;-37
2021/06/20 12:04:25;;;;;;;3.70;1.60;;;25.60;46.30;;;;;;5072935;28;20031;-37
2021/06/20 12:06:51;;;;;;;5.25;1.60;;;26.20;45.30;;;;;;5072815;28;20384;-38
2021/06/20 12:09:17;;;;;;;1.38;1.25;;;25.80;45.70;;;;;;5073055;28;20035;-37
2021/06/20 12:11:44;;;;;;;3.63;1.35;;;26.00;45.30;;;;;;5072897;28;20032;-38
2021/06/20 12:14:23;;;;;;;3.97;1.67;;;27.20;42.40;;;;;;5072886;28;20028;-37
2021/06/20 12:16:52;;;;;;;2.08;1.30;;;27.50;42.70;;;;;;5073064;28;20078;-38
2021/06/20 12:19:21;;;;;;;3.22;1.00;;;28.80;39.60;;;;;;5072627;28;20029;-38
2021/06/20 12:21:48;;;;;;;1.23;1.00;;;28.60;39.90;;;;;;5054199;28;20020;-38
2021/06/20 12:24:14;;;;;;;1.63;1.52;;;28.30;40.10;;;;;;5073250;28;20028;-37
2021/06/20 12:26:52;;;;;;;2.20;1.15;;;27.90;40.80;;;;;;5072460;28;20048;-36
2021/06/20 12:29:30;;;;;;;1.23;1.13;;;28.20;40.00;;;;;;5073316;28;20024;-37
2021/06/20 12:31:58;;;;;;;1.63;1.17;;;29.20;38.50;;;;;;5091257;28;20054;-38
2021/06/20 12:34:23;;;;;;;1.48;1.30;;;30.10;37.60;;;;;;5094733;28;20039;-37
2021/06/20 12:37:01;;;;;;;3.30;1.45;;;28.80;39.60;;;;;;5097240;28;20024;-37
2021/06/20 12:39:41;;;;;;;2.80;1.20;;;29.30;38.40;;;;;;5096624;28;20024;-37
2021/06/20 12:42:08;;;;;;;3.20;1.02;;;29.80;38.10;;;;;;5096768;28;20518;-38
2021/06/20 12:44:43;;;;;;;2.03;1.00;;;31.20;35.20;;;;;;5096802;28;20058;-37
2021/06/20 12:47:09;;;;;;;1.42;1.13;;;31.20;34.70;;;;;;5096807;28;20024;-37
2021/06/20 12:49:35;;;;;;;1.58;1.17;;;30.60;34.10;;;;;;5078172;28;20039;-37